Williana, Louisiana
Current Conditions -  °F | °C
As of 8:21 AM on Friday 19 Dec 2014 (Local Time) from KAEX Reporting Station
Moderate Rain Moderate Rain  
Wind Chill: 52°   Ceiling: 8500
Heat Index: 52°   Visibility: 4mi
Dew Point: 51°   Wind: 12mph
Humidity: 97%   Direction: 30°NNE
Pressure: 30.1"   Gusts: NA
Location:  31.6531°N, 92.5571°W
Report Text: KAEX 191421Z 03010KT 4SM RA BR SCT016 OVC085 11/11 A3010 RMK AO2 P0003 T01110106
Loading
Personal Weather Stations






























Interactive Weather Map New forecast layout! Learn more

10-Day Weather Forecast

Advertisements
Track Severe Weather on mobile